sensor_id;sensor_type;location;lat;lon;timestamp;pressure;altitude;pressure_sealevel;temperature;humidity
81181;BME280;70650;51.408;7.132;2024-02-23T00:00:02;97568.56;;;5.46;79.64
81181;BME280;70650;51.408;7.132;2024-02-23T00:02:33;97611.53;;;5.44;78.88
81181;BME280;70650;51.408;7.132;2024-02-23T00:04:58;97616.66;;;5.34;79.55
81181;BME280;70650;51.408;7.132;2024-02-23T00:07:23;97621.28;;;5.30;80.34
81181;BME280;70650;51.408;7.132;2024-02-23T00:09:49;97627.25;;;5.32;80.64
81181;BME280;70650;51.408;7.132;2024-02-23T00:12:14;97625.09;;;5.26;80.63
81181;BME280;70650;51.408;7.132;2024-02-23T00:14:40;97629.00;;;5.21;80.37
81181;BME280;70650;51.408;7.132;2024-02-23T00:17:06;97644.84;;;5.19;80.54
81181;BME280;70650;51.408;7.132;2024-02-23T00:19:31;97647.81;;;5.15;80.64
81181;BME280;70650;51.408;7.132;2024-02-23T00:21:57;97662.53;;;5.04;81.75
81181;BME280;70650;51.408;7.132;2024-02-23T00:24:24;97668.72;;;5.03;82.21
81181;BME280;70650;51.408;7.132;2024-02-23T00:26:50;97663.81;;;4.99;82.86
81181;BME280;70650;51.408;7.132;2024-02-23T00:29:16;97668.47;;;4.95;83.54
81181;BME280;70650;51.408;7.132;2024-02-23T00:31:42;97677.38;;;4.93;83.77
81181;BME280;70650;51.408;7.132;2024-02-23T00:34:10;97676.88;;;4.88;84.08
81181;BME280;70650;51.408;7.132;2024-02-23T00:36:39;97696.78;;;4.90;84.10
81181;BME280;70650;51.408;7.132;2024-02-23T00:39:04;97691.53;;;4.90;83.93
81181;BME280;70650;51.408;7.132;2024-02-23T00:41:29;97693.44;;;4.88;83.49
81181;BME280;70650;51.408;7.132;2024-02-23T00:43:55;97707.38;;;4.89;83.05
81181;BME280;70650;51.408;7.132;2024-02-23T00:46:20;97706.53;;;4.88;83.40
81181;BME280;70650;51.408;7.132;2024-02-23T00:48:46;97722.25;;;4.88;83.45
81181;BME280;70650;51.408;7.132;2024-02-23T00:51:11;97738.66;;;4.90;83.32
81181;BME280;70650;51.408;7.132;2024-02-23T00:53:36;97739.50;;;4.91;83.63
81181;BME280;70650;51.408;7.132;2024-02-23T00:56:02;97735.41;;;4.87;83.54
81181;BME280;70650;51.408;7.132;2024-02-23T00:58:27;97743.19;;;4.88;83.23
81181;BME280;70650;51.408;7.132;2024-02-23T01:00:52;97732.81;;;4.87;83.15
81181;BME280;70650;51.408;7.132;2024-02-23T01:03:18;97755.41;;;4.88;83.17
81181;BME280;70650;51.408;7.132;2024-02-23T01:05:43;97758.78;;;4.90;81.23
81181;BME280;70650;51.408;7.132;2024-02-23T01:08:09;97758.03;;;4.88;82.17
81181;BME280;70650;51.408;7.132;2024-02-23T01:10:34;97765.06;;;4.87;81.14
81181;BME280;70650;51.408;7.132;2024-02-23T01:13:00;97765.56;;;4.92;80.72
81181;BME280;70650;51.408;7.132;2024-02-23T01:15:25;97763.63;;;4.83;80.97
81181;BME280;70650;51.408;7.132;2024-02-23T01:17:50;97763.00;;;4.79;80.94
81181;BME280;70650;51.408;7.132;2024-02-23T01:20:16;97766.78;;;4.75;81.00
81181;BME280;70650;51.408;7.132;2024-02-23T01:22:42;97762.81;;;4.70;81.18
81181;BME280;70650;51.408;7.132;2024-02-23T01:25:07;97769.31;;;4.77;80.13
81181;BME280;70650;51.408;7.132;2024-02-23T01:27:33;97770.47;;;4.73;80.77
81181;BME280;70650;51.408;7.132;2024-02-23T01:29:59;97771.63;;;4.69;80.91
81181;BME280;70650;51.408;7.132;2024-02-23T01:32:25;97779.78;;;4.77;80.28
81181;BME280;70650;51.408;7.132;2024-02-23T01:34:50;97780.81;;;4.74;80.43
81181;BME280;70650;51.408;7.132;2024-02-23T01:37:15;97782.38;;;4.77;80.48
81181;BME280;70650;51.408;7.132;2024-02-23T01:39:41;97789.63;;;4.73;80.69
81181;BME280;70650;51.408;7.132;2024-02-23T01:42:08;97792.88;;;4.77;80.78
81181;BME280;70650;51.408;7.132;2024-02-23T01:44:33;97792.41;;;4.83;80.69
81181;BME280;70650;51.408;7.132;2024-02-23T01:46:59;97798.09;;;4.77;81.44
81181;BME280;70650;51.408;7.132;2024-02-23T01:49:25;97800.78;;;4.88;80.70
81181;BME280;70650;51.408;7.132;2024-02-23T01:51:56;97801.28;;;4.93;80.64
81181;BME280;70650;51.408;7.132;2024-02-23T01:54:22;97804.41;;;4.98;80.18
81181;BME280;70650;51.408;7.132;2024-02-23T01:56:48;97788.69;;;4.98;79.75
81181;BME280;70650;51.408;7.132;2024-02-23T01:59:13;97797.66;;;5.07;79.54
81181;BME280;70650;51.408;7.132;2024-02-23T02:01:39;97792.44;;;5.07;79.16
81181;BME280;70650;51.408;7.132;2024-02-23T02:04:04;97803.94;;;5.04;79.22
81181;BME280;70650;51.408;7.132;2024-02-23T02:06:29;97799.66;;;5.03;79.20
81181;BME280;70650;51.408;7.132;2024-02-23T02:08:55;97804.63;;;4.95;79.51
81181;BME280;70650;51.408;7.132;2024-02-23T02:11:20;97797.50;;;4.97;79.49
81181;BME280;70650;51.408;7.132;2024-02-23T02:13:45;97814.53;;;5.03;79.44
81181;BME280;70650;51.408;7.132;2024-02-23T02:16:11;97823.03;;;5.07;79.69
81181;BME280;70650;51.408;7.132;2024-02-23T02:18:37;97812.56;;;5.07;79.63
81181;BME280;70650;51.408;7.132;2024-02-23T02:21:02;97817.03;;;5.04;79.08
81181;BME280;70650;51.408;7.132;2024-02-23T02:23:28;97813.38;;;5.07;78.99
81181;BME280;70650;51.408;7.132;2024-02-23T02:25:54;97813.38;;;5.07;79.37
81181;BME280;70650;51.408;7.132;2024-02-23T02:28:20;97821.25;;;5.07;78.38
81181;BME280;70650;51.408;7.132;2024-02-23T02:30:46;97814.00;;;5.11;78.23
81181;BME280;70650;51.408;7.132;2024-02-23T02:33:11;97836.63;;;5.12;78.83
81181;BME280;70650;51.408;7.132;2024-02-23T02:35:37;97846.28;;;4.98;78.81
81181;BME280;70650;51.408;7.132;2024-02-23T02:38:02;97845.84;;;5.04;78.78
81181;BME280;70650;51.408;7.132;2024-02-23T02:40:27;97858.34;;;5.01;79.07
81181;BME280;70650;51.408;7.132;2024-02-23T02:42:53;97863.78;;;4.98;78.67
81181;BME280;70650;51.408;7.132;2024-02-23T02:45:18;97851.53;;;4.98;78.86
81181;BME280;70650;51.408;7.132;2024-02-23T02:47:43;97849.34;;;4.92;78.98
81181;BME280;70650;51.408;7.132;2024-02-23T02:50:09;97857.63;;;4.86;78.79
81181;BME280;70650;51.408;7.132;2024-02-23T02:52:34;97865.28;;;4.89;78.95
81181;BME280;70650;51.408;7.132;2024-02-23T02:54:59;97871.38;;;4.90;78.65
81181;BME280;70650;51.408;7.132;2024-02-23T02:57:25;97876.09;;;4.85;79.06
81181;BME280;70650;51.408;7.132;2024-02-23T02:59:50;97880.69;;;4.81;78.84
81181;BME280;70650;51.408;7.132;2024-02-23T03:02:16;97876.09;;;4.85;79.10
81181;BME280;70650;51.408;7.132;2024-02-23T03:04:48;97878.06;;;4.81;79.41
81181;BME280;70650;51.408;7.132;2024-02-23T03:07:14;97891.69;;;4.86;78.87
81181;BME280;70650;51.408;7.132;2024-02-23T03:09:39;97889.28;;;4.83;78.46
81181;BME280;70650;51.408;7.132;2024-02-23T03:12:05;97885.72;;;4.84;78.81
81181;BME280;70650;51.408;7.132;2024-02-23T03:14:30;97896.50;;;4.79;79.09
81181;BME280;70650;51.408;7.132;2024-02-23T03:16:56;97881.44;;;4.70;79.22
81181;BME280;70650;51.408;7.132;2024-02-23T03:19:21;97889.81;;;4.75;79.27
81181;BME280;70650;51.408;7.132;2024-02-23T03:21:48;97884.28;;;4.67;79.48
81181;BME280;70650;51.408;7.132;2024-02-23T03:24:13;97892.53;;;4.74;78.69
81181;BME280;70650;51.408;7.132;2024-02-23T03:26:39;97902.38;;;4.83;78.71
81181;BME280;70650;51.408;7.132;2024-02-23T03:29:04;97893.06;;;4.79;79.05
81181;BME280;70650;51.408;7.132;2024-02-23T03:31:29;97898.41;;;4.77;78.62
81181;BME280;70650;51.408;7.132;2024-02-23T03:33:54;97894.13;;;4.76;78.88
81181;BME280;70650;51.408;7.132;2024-02-23T03:36:20;97905.19;;;4.80;78.66
81181;BME280;70650;51.408;7.132;2024-02-23T03:38:48;97888.78;;;4.78;78.57
81181;BME280;70650;51.408;7.132;2024-02-23T03:41:13;97889.50;;;4.80;78.44
81181;BME280;70650;51.408;7.132;2024-02-23T03:43:40;97901.75;;;4.79;78.53
81181;BME280;70650;51.408;7.132;2024-02-23T03:46:06;97905.00;;;4.83;78.21
81181;BME280;70650;51.408;7.132;2024-02-23T03:48:31;97902.16;;;4.86;77.71
81181;BME280;70650;51.408;7.132;2024-02-23T03:50:57;97905.00;;;4.83;77.89
81181;BME280;70650;51.408;7.132;2024-02-23T03:53:22;97911.34;;;4.92;77.64
81181;BME280;70650;51.408;7.132;2024-02-23T03:55:48;97903.31;;;4.82;78.08
81181;BME280;70650;51.408;7.132;2024-02-23T03:58:14;97909.28;;;4.84;78.25
81181;BME280;70650;51.408;7.132;2024-02-23T04:00:40;97916.38;;;4.82;77.76
81181;BME280;70650;51.408;7.132;2024-02-23T04:03:06;97924.03;;;4.85;77.86
81181;BME280;70650;51.408;7.132;2024-02-23T04:05:33;97916.50;;;4.81;78.32
81181;BME280;70650;51.408;7.132;2024-02-23T04:07:58;97924.16;;;4.84;78.30
81181;BME280;70650;51.408;7.132;2024-02-23T04:10:23;97924.34;;;4.81;78.11
81181;BME280;70650;51.408;7.132;2024-02-23T04:12:49;97923.53;;;4.80;78.13
81181;BME280;70650;51.408;7.132;2024-02-23T04:15:14;97940.19;;;4.79;77.75
81181;BME280;70650;51.408;7.132;2024-02-23T04:17:39;97926.78;;;4.84;77.78
81181;BME280;70650;51.408;7.132;2024-02-23T04:20:06;97926.13;;;4.80;77.58
81181;BME280;70650;51.408;7.132;2024-02-23T04:22:32;97934.00;;;4.80;76.78
81181;BME280;70650;51.408;7.132;2024-02-23T04:24:58;97940.28;;;4.90;76.17
81181;BME280;70650;51.408;7.132;2024-02-23T04:27:23;97936.81;;;4.90;76.39
81181;BME280;70650;51.408;7.132;2024-02-23T04:29:49;97959.03;;;4.84;76.67
81181;BME280;70650;51.408;7.132;2024-02-23T04:32:15;97936.31;;;4.85;76.24
81181;BME280;70650;51.408;7.132;2024-02-23T04:34:40;97936.31;;;4.85;76.95
81181;BME280;70650;51.408;7.132;2024-02-23T04:37:06;97949.09;;;4.89;76.15
81181;BME280;70650;51.408;7.132;2024-02-23T04:39:32;97942.19;;;4.88;75.96
81181;BME280;70650;51.408;7.132;2024-02-23T04:41:57;97950.03;;;4.88;75.93
81181;BME280;70650;51.408;7.132;2024-02-23T04:44:24;97950.03;;;4.88;76.23
81181;BME280;70650;51.408;7.132;2024-02-23T04:46:49;97950.22;;;4.85;76.46
81181;BME280;70650;51.408;7.132;2024-02-23T04:49:14;97948.56;;;4.84;76.38
81181;BME280;70650;51.408;7.132;2024-02-23T04:51:40;97946.47;;;4.89;75.84
81181;BME280;70650;51.408;7.132;2024-02-23T04:54:05;97957.78;;;4.90;76.28
81181;BME280;70650;51.408;7.132;2024-02-23T04:56:31;97964.16;;;4.86;76.14
81181;BME280;70650;51.408;7.132;2024-02-23T04:58:56;97959.63;;;4.88;76.47
81181;BME280;70650;51.408;7.132;2024-02-23T05:01:22;97970.03;;;4.89;76.69
81181;BME280;70650;51.408;7.132;2024-02-23T05:03:48;97972.66;;;4.89;76.02
81181;BME280;70650;51.408;7.132;2024-02-23T05:06:14;97979.16;;;4.84;75.51
81181;BME280;70650;51.408;7.132;2024-02-23T05:08:39;97968.34;;;4.88;75.65
81181;BME280;70650;51.408;7.132;2024-02-23T05:11:05;97964.47;;;4.81;75.62
81181;BME280;70650;51.408;7.132;2024-02-23T05:13:30;97975.47;;;4.86;76.11
81181;BME280;70650;51.408;7.132;2024-02-23T05:15:55;97977.34;;;4.84;76.22
81181;BME280;70650;51.408;7.132;2024-02-23T05:18:21;97975.34;;;4.88;76.01
81181;BME280;70650;51.408;7.132;2024-02-23T05:20:46;97976.22;;;4.88;75.98
81181;BME280;70650;51.408;7.132;2024-02-23T05:23:11;97973.78;;;4.85;75.59
81181;BME280;70650;51.408;7.132;2024-02-23T05:25:37;97974.50;;;4.87;76.09
81181;BME280;70650;51.408;7.132;2024-02-23T05:28:02;97964.88;;;4.88;76.33
81181;BME280;70650;51.408;7.132;2024-02-23T05:30:31;97976.22;;;4.88;75.89
81181;BME280;70650;51.408;7.132;2024-02-23T05:32:57;97965.00;;;4.86;75.98
81181;BME280;70650;51.408;7.132;2024-02-23T05:35:23;97953.16;;;4.81;75.43
81181;BME280;70650;51.408;7.132;2024-02-23T05:37:49;97958.81;;;4.87;75.27
81181;BME280;70650;51.408;7.132;2024-02-23T05:40:15;97963.50;;;4.82;75.36
81181;BME280;70650;51.408;7.132;2024-02-23T05:42:41;97963.22;;;4.87;75.38
81181;BME280;70650;51.408;7.132;2024-02-23T05:45:07;97957.34;;;4.83;75.73
81181;BME280;70650;51.408;7.132;2024-02-23T05:47:37;97956.72;;;4.79;75.18
81181;BME280;70650;51.408;7.132;2024-02-23T05:50:03;97959.03;;;4.84;75.43
81181;BME280;70650;51.408;7.132;2024-02-23T05:52:31;97954.63;;;4.72;75.73
81181;BME280;70650;51.408;7.132;2024-02-23T05:54:56;97940.78;;;4.70;75.24
81181;BME280;70650;51.408;7.132;2024-02-23T05:57:24;97947.63;;;4.60;75.65
81181;BME280;70650;51.408;7.132;2024-02-23T05:59:51;97943.75;;;4.65;75.31
81181;BME280;70650;51.408;7.132;2024-02-23T06:02:16;97942.28;;;4.61;76.06
81181;BME280;70650;51.408;7.132;2024-02-23T06:04:41;97943.13;;;4.62;75.69
81181;BME280;70650;51.408;7.132;2024-02-23T06:07:07;97948.25;;;4.63;75.08
81181;BME280;70650;51.408;7.132;2024-02-23T06:09:32;97935.97;;;4.64;75.06
81181;BME280;70650;51.408;7.132;2024-02-23T06:11:57;97934.53;;;4.60;75.26
81181;BME280;70650;51.408;7.132;2024-02-23T06:14:23;97930.16;;;4.60;75.35
81181;BME280;70650;51.408;7.132;2024-02-23T06:16:49;97941.44;;;4.61;75.21
81181;BME280;70650;51.408;7.132;2024-02-23T06:19:14;97940.81;;;4.57;75.55
81181;BME280;70650;51.408;7.132;2024-02-23T06:21:40;97941.22;;;4.64;74.84
81181;BME280;70650;51.408;7.132;2024-02-23T06:24:05;97937.47;;;4.68;74.62
81181;BME280;70650;51.408;7.132;2024-02-23T06:26:32;97938.19;;;4.70;74.47
81181;BME280;70650;51.408;7.132;2024-02-23T06:28:58;97925.22;;;4.68;74.29
81181;BME280;70650;51.408;7.132;2024-02-23T06:31:23;97926.56;;;4.74;74.40
81181;BME280;70650;51.408;7.132;2024-02-23T06:33:48;97933.69;;;4.72;74.78
81181;BME280;70650;51.408;7.132;2024-02-23T06:36:16;97935.38;;;4.73;74.09
81181;BME280;70650;51.408;7.132;2024-02-23T06:38:42;97926.88;;;4.69;74.02
81181;BME280;70650;51.408;7.132;2024-02-23T06:41:07;97940.38;;;4.76;74.29
81181;BME280;70650;51.408;7.132;2024-02-23T06:43:36;97926.56;;;4.74;74.90
81181;BME280;70650;51.408;7.132;2024-02-23T06:46:08;97934.94;;;4.79;73.99
81181;BME280;70650;51.408;7.132;2024-02-23T06:48:34;97923.00;;;4.75;74.16
81181;BME280;70650;51.408;7.132;2024-02-23T06:51:00;97930.66;;;4.78;74.19
81181;BME280;70650;51.408;7.132;2024-02-23T06:53:26;97935.25;;;4.74;73.96
81181;BME280;70650;51.408;7.132;2024-02-23T06:55:52;97928.16;;;4.76;73.95
81181;BME280;70650;51.408;7.132;2024-02-23T06:58:18;97932.00;;;4.84;73.37
81181;BME280;70650;51.408;7.132;2024-02-23T07:00:44;97936.84;;;4.77;73.74
81181;BME280;70650;51.408;7.132;2024-02-23T07:03:09;97928.47;;;4.72;73.63
81181;BME280;70650;51.408;7.132;2024-02-23T07:05:36;97929.00;;;4.77;74.15
81181;BME280;70650;51.408;7.132;2024-02-23T07:08:02;97932.94;;;4.70;74.29
81181;BME280;70650;51.408;7.132;2024-02-23T07:10:27;97926.16;;;4.67;74.46
81181;BME280;70650;51.408;7.132;2024-02-23T07:12:53;97927.81;;;4.68;74.69
81181;BME280;70650;51.408;7.132;2024-02-23T07:15:19;97935.69;;;4.68;74.59
81181;BME280;70650;51.408;7.132;2024-02-23T07:17:45;97932.03;;;4.71;74.75
81181;BME280;70650;51.408;7.132;2024-02-23T07:20:11;97936.19;;;4.73;74.96
81181;BME280;70650;51.408;7.132;2024-02-23T07:22:37;97937.88;;;4.74;74.62
81181;BME280;70650;51.408;7.132;2024-02-23T07:25:02;97936.19;;;4.73;74.92
81181;BME280;70650;51.408;7.132;2024-02-23T07:27:29;97940.59;;;4.73;75.12
81181;BME280;70650;51.408;7.132;2024-02-23T07:29:55;97945.94;;;4.71;75.37
81181;BME280;70650;51.408;7.132;2024-02-23T07:32:21;97947.09;;;4.80;74.96
81181;BME280;70650;51.408;7.132;2024-02-23T07:34:46;97940.91;;;4.81;75.13
81181;BME280;70650;51.408;7.132;2024-02-23T07:37:11;97941.53;;;4.85;75.18
81181;BME280;70650;51.408;7.132;2024-02-23T07:39:36;97949.09;;;4.89;74.27
81181;BME280;70650;51.408;7.132;2024-02-23T07:42:03;97938.50;;;4.91;74.86
81181;BME280;70650;51.408;7.132;2024-02-23T07:44:28;97934.72;;;4.95;74.85
81181;BME280;70650;51.408;7.132;2024-02-23T07:46:54;97948.13;;;4.90;75.06
81181;BME280;70650;51.408;7.132;2024-02-23T07:49:21;97944.38;;;4.94;74.64
81181;BME280;70650;51.408;7.132;2024-02-23T07:51:47;97951.78;;;5.00;74.84
81181;BME280;70650;51.408;7.132;2024-02-23T07:54:13;97949.38;;;4.97;75.29
81181;BME280;70650;51.408;7.132;2024-02-23T07:56:38;97958.38;;;4.93;74.67
81181;BME280;70650;51.408;7.132;2024-02-23T07:59:03;97953.34;;;5.03;74.67
81181;BME280;70650;51.408;7.132;2024-02-23T08:01:29;97952.50;;;5.02;74.92
81181;BME280;70650;51.408;7.132;2024-02-23T08:03:54;97955.84;;;5.04;74.79
81181;BME280;70650;51.408;7.132;2024-02-23T08:06:19;97968.03;;;5.05;75.27
81181;BME280;70650;51.408;7.132;2024-02-23T08:08:45;97964.16;;;5.11;75.07
81181;BME280;70650;51.408;7.132;2024-02-23T08:11:11;97971.06;;;5.12;75.40
81181;BME280;70650;51.408;7.132;2024-02-23T08:13:37;97980.91;;;5.09;75.20
81181;BME280;70650;51.408;7.132;2024-02-23T08:16:02;97978.38;;;5.20;75.41
81181;BME280;70650;51.408;7.132;2024-02-23T08:18:29;97975.50;;;5.36;75.82
81181;BME280;70650;51.408;7.132;2024-02-23T08:20:54;97980.34;;;5.29;74.09
81181;BME280;70650;51.408;7.132;2024-02-23T08:23:19;97980.94;;;5.45;74.54
81181;BME280;70650;51.408;7.132;2024-02-23T08:25:47;97979.38;;;5.43;73.91
81181;BME280;70650;51.408;7.132;2024-02-23T08:28:14;97989.97;;;5.41;74.33
81181;BME280;70650;51.408;7.132;2024-02-23T08:30:39;97985.25;;;5.46;73.51
81181;BME280;70650;51.408;7.132;2024-02-23T08:33:04;97986.28;;;5.56;73.00
81181;BME280;70650;51.408;7.132;2024-02-23T08:35:30;97984.25;;;5.60;73.26
81181;BME280;70650;51.408;7.132;2024-02-23T08:37:56;97985.53;;;5.54;73.38
81181;BME280;70650;51.408;7.132;2024-02-23T08:40:22;97991.72;;;5.53;73.51
81181;BME280;70650;51.408;7.132;2024-02-23T08:42:47;97989.59;;;5.58;73.06
81181;BME280;70650;51.408;7.132;2024-02-23T08:45:14;97979.06;;;5.71;73.01
81181;BME280;70650;51.408;7.132;2024-02-23T08:47:41;97987.34;;;5.78;72.79
81181;BME280;70650;51.408;7.132;2024-02-23T08:50:06;97983.28;;;5.74;71.99
81181;BME280;70650;51.408;7.132;2024-02-23T08:52:32;97979.41;;;5.67;71.55
81181;BME280;70650;51.408;7.132;2024-02-23T08:54:57;97995.56;;;5.73;71.58
81181;BME280;70650;51.408;7.132;2024-02-23T08:57:23;97982.72;;;5.81;72.32
81181;BME280;70650;51.408;7.132;2024-02-23T08:59:49;97992.38;;;5.81;71.72
81181;BME280;70650;51.408;7.132;2024-02-23T09:02:15;97993.41;;;5.78;72.06
81181;BME280;70650;51.408;7.132;2024-02-23T09:04:40;97991.34;;;5.71;72.12
81181;BME280;70650;51.408;7.132;2024-02-23T09:07:06;97990.00;;;5.65;72.17
81181;BME280;70650;51.408;7.132;2024-02-23T09:09:31;97988.22;;;5.66;72.25
81181;BME280;70650;51.408;7.132;2024-02-23T09:11:57;97991.97;;;5.74;72.34
81181;BME280;70650;51.408;7.132;2024-02-23T09:14:22;97986.50;;;5.77;71.99
81181;BME280;70650;51.408;7.132;2024-02-23T09:16:47;97989.88;;;5.79;71.65
81181;BME280;70650;51.408;7.132;2024-02-23T09:19:19;97990.38;;;5.84;71.87
81181;BME280;70650;51.408;7.132;2024-02-23T09:21:45;97997.88;;;5.89;71.89
81181;BME280;70650;51.408;7.132;2024-02-23T09:24:12;97991.31;;;5.96;72.36
81181;BME280;70650;51.408;7.132;2024-02-23T09:26:37;97991.31;;;5.96;71.41
81181;BME280;70650;51.408;7.132;2024-02-23T09:29:03;98004.28;;;5.98;71.34
81181;BME280;70650;51.408;7.132;2024-02-23T09:31:28;97999.69;;;6.01;71.05
81181;BME280;70650;51.408;7.132;2024-02-23T09:33:55;98003.84;;;6.04;70.25
81181;BME280;70650;51.408;7.132;2024-02-23T09:36:20;97997.94;;;6.13;70.07
81181;BME280;70650;51.408;7.132;2024-02-23T09:38:47;97991.41;;;6.19;69.38
81181;BME280;70650;51.408;7.132;2024-02-23T09:41:21;97995.56;;;6.21;69.55
81181;BME280;70650;51.408;7.132;2024-02-23T09:43:48;98003.38;;;6.34;69.50
81181;BME280;70650;51.408;7.132;2024-02-23T09:46:15;98002.81;;;6.42;69.54
81181;BME280;70650;51.408;7.132;2024-02-23T09:48:42;98000.28;;;6.40;68.13
81181;BME280;70650;51.408;7.132;2024-02-23T09:51:09;97994.81;;;6.43;68.47
81181;BME280;70650;51.408;7.132;2024-02-23T09:53:37;98008.81;;;6.55;68.82
81181;BME280;70650;51.408;7.132;2024-02-23T09:56:03;98001.31;;;6.61;68.26
81181;BME280;70650;51.408;7.132;2024-02-23T09:58:31;98003.94;;;6.61;67.91
81181;BME280;70650;51.408;7.132;2024-02-23T10:00:58;97994.28;;;6.62;67.59
81181;BME280;70650;51.408;7.132;2024-02-23T10:03:25;98011.63;;;6.76;67.95
81181;BME280;70650;51.408;7.132;2024-02-23T10:05:51;98010.81;;;6.75;68.35
81181;BME280;70650;51.408;7.132;2024-02-23T10:08:18;98010.88;;;6.74;68.09
81181;BME280;70650;51.408;7.132;2024-02-23T10:10:45;98001.25;;;6.85;68.42
81181;BME280;70650;51.408;7.132;2024-02-23T10:13:11;98004.81;;;6.84;67.70
81181;BME280;70650;51.408;7.132;2024-02-23T10:15:36;97999.69;;;6.83;68.13
81181;BME280;70650;51.408;7.132;2024-02-23T10:18:02;98004.25;;;6.81;68.05
81181;BME280;70650;51.408;7.132;2024-02-23T10:20:27;98005.16;;;6.80;67.55
81181;BME280;70650;51.408;7.132;2024-02-23T10:22:53;98003.50;;;6.79;66.75
81181;BME280;70650;51.408;7.132;2024-02-23T10:25:18;98006.13;;;6.79;67.42
81181;BME280;70650;51.408;7.132;2024-02-23T10:27:44;98006.88;;;6.81;67.46
81181;BME280;70650;51.408;7.132;2024-02-23T10:30:09;98006.97;;;6.79;66.95
81181;BME280;70650;51.408;7.132;2024-02-23T10:32:38;98009.47;;;6.70;66.90
81181;BME280;70650;51.408;7.132;2024-02-23T10:35:13;98006.38;;;6.76;67.38
81181;BME280;70650;51.408;7.132;2024-02-23T10:37:40;98014.50;;;6.84;66.94
81181;BME280;70650;51.408;7.132;2024-02-23T10:40:07;98008.78;;;6.90;66.19
81181;BME280;70650;51.408;7.132;2024-02-23T10:42:35;98009.13;;;6.97;67.16
81181;BME280;70650;51.408;7.132;2024-02-23T10:45:02;98029.78;;;6.90;66.91
81181;BME280;70650;51.408;7.132;2024-02-23T10:47:30;98032.69;;;6.98;66.32
81181;BME280;70650;51.408;7.132;2024-02-23T10:49:56;98026.69;;;6.96;65.83
81181;BME280;70650;51.408;7.132;2024-02-23T10:52:25;98029.94;;;7.00;66.07
81181;BME280;70650;51.408;7.132;2024-02-23T10:54:52;98020.13;;;6.90;65.93
81181;BME280;70650;51.408;7.132;2024-02-23T10:57:18;98028.50;;;7.07;66.00
81181;BME280;70650;51.408;7.132;2024-02-23T10:59:46;98025.91;;;7.18;65.96
81181;BME280;70650;51.408;7.132;2024-02-23T11:02:12;98025.53;;;7.23;65.66
81181;BME280;70650;51.408;7.132;2024-02-23T11:04:41;98020.50;;;7.31;65.45
81181;BME280;70650;51.408;7.132;2024-02-23T11:07:13;98014.56;;;7.40;64.68
81181;BME280;70650;51.408;7.132;2024-02-23T11:09:40;98009.28;;;7.29;64.05
81181;BME280;70650;51.408;7.132;2024-02-23T11:12:06;98013.25;;;7.34;64.62
81181;BME280;70650;51.408;7.132;2024-02-23T11:14:35;98008.94;;;7.33;64.81
81181;BME280;70650;51.408;7.132;2024-02-23T11:17:02;98021.47;;;7.30;65.25
81181;BME280;70650;51.408;7.132;2024-02-23T11:19:36;98006.31;;;7.22;64.02
81181;BME280;70650;51.408;7.132;2024-02-23T11:22:02;98016.97;;;7.21;64.84
81181;BME280;70650;51.408;7.132;2024-02-23T11:24:29;98007.50;;;7.18;65.05
81181;BME280;70650;51.408;7.132;2024-02-23T11:26:59;98017.03;;;7.19;65.31
81181;BME280;70650;51.408;7.132;2024-02-23T11:29:27;98009.53;;;7.26;65.18
81181;BME280;70650;51.408;7.132;2024-02-23T11:31:54;98009.53;;;7.26;65.53
81181;BME280;70650;51.408;7.132;2024-02-23T11:34:26;98007.75;;;7.37;65.24
81181;BME280;70650;51.408;7.132;2024-02-23T11:36:52;98009.06;;;7.32;65.67
81181;BME280;70650;51.408;7.132;2024-02-23T11:39:19;97999.75;;;7.28;66.06
81181;BME280;70650;51.408;7.132;2024-02-23T11:41:44;98002.38;;;7.28;66.27
81181;BME280;70650;51.408;7.132;2024-02-23T11:44:10;98011.22;;;7.27;65.37
81181;BME280;70650;51.408;7.132;2024-02-23T11:46:35;98011.22;;;7.27;65.83
81181;BME280;70650;51.408;7.132;2024-02-23T11:49:00;98001.53;;;7.27;66.21
81181;BME280;70650;51.408;7.132;2024-02-23T11:51:26;98017.31;;;7.16;67.45
81181;BME280;70650;51.408;7.132;2024-02-23T11:53:55;98008.94;;;7.11;68.32
81181;BME280;70650;51.408;7.132;2024-02-23T11:56:23;98000.78;;;7.14;67.37
81181;BME280;70650;51.408;7.132;2024-02-23T11:58:48;97997.25;;;7.26;68.28
81181;BME280;70650;51.408;7.132;2024-02-23T12:01:14;98001.28;;;7.30;66.84
81181;BME280;70650;51.408;7.132;2024-02-23T12:03:39;98003.06;;;7.18;66.25
81181;BME280;70650;51.408;7.132;2024-02-23T12:06:06;97995.44;;;7.27;66.06
81181;BME280;70650;51.408;7.132;2024-02-23T12:08:32;97992.91;;;7.25;66.23
81181;BME280;70650;51.408;7.132;2024-02-23T12:11:05;97988.88;;;7.32;66.10
81181;BME280;70650;51.408;7.132;2024-02-23T12:13:31;97994.63;;;7.26;66.04
81181;BME280;70650;51.408;7.132;2024-02-23T12:15:57;97982.41;;;7.36;65.85
81181;BME280;70650;51.408;7.132;2024-02-23T12:18:24;97997.81;;;7.30;66.46
81181;BME280;70650;51.408;7.132;2024-02-23T12:20:52;97993.53;;;7.29;65.97
81181;BME280;70650;51.408;7.132;2024-02-23T12:23:18;98014.06;;;7.35;66.04
81181;BME280;70650;51.408;7.132;2024-02-23T12:25:56;98018.16;;;7.28;66.33
81181;BME280;70650;51.408;7.132;2024-02-23T12:28:22;98014.34;;;7.32;66.31
81181;BME280;70650;51.408;7.132;2024-02-23T12:31:04;98006.53;;;7.30;66.51
81181;BME280;70650;51.408;7.132;2024-02-23T12:33:40;98024.09;;;7.30;66.92
81181;BME280;70650;51.408;7.132;2024-02-23T12:36:07;98026.13;;;7.49;66.82
81181;BME280;70650;51.408;7.132;2024-02-23T12:38:33;98021.81;;;7.48;66.45
81181;BME280;70650;51.408;7.132;2024-02-23T12:41:00;98027.69;;;7.62;65.81
81181;BME280;70650;51.408;7.132;2024-02-23T12:43:26;98016.00;;;7.55;65.73
81181;BME280;70650;51.408;7.132;2024-02-23T12:45:56;98023.88;;;7.55;65.91
81181;BME280;70650;51.408;7.132;2024-02-23T12:48:22;98026.59;;;7.42;65.83
81181;BME280;70650;51.408;7.132;2024-02-23T12:50:48;98027.22;;;7.46;66.24
81181;BME280;70650;51.408;7.132;2024-02-23T12:55:59;98016.69;;;7.68;66.53
81181;BME280;70650;51.408;7.132;2024-02-23T12:58:25;98026.00;;;7.73;65.63
81181;BME280;70650;51.408;7.132;2024-02-23T13:00:50;98029.97;;;7.67;65.46
81181;BME280;70650;51.408;7.132;2024-02-23T13:03:16;98013.81;;;7.72;65.01
81181;BME280;70650;51.408;7.132;2024-02-23T13:05:45;98016.56;;;7.70;65.26